Аэропорт: Ширак. Гюмри

ICAO: UDSG

METAR:
2019/03/26 13:00
UDSG 261300Z 23006KT 9999 FEW030CB OVC049 04/M02 Q1011 R02/CLRD70 NOSIG
METAR:
2019/03/26 12:00
TAF UDSG 261102Z 2612/2712 20008KT 9999 BKN040 
      TEMPO 2612/2618 VRB20KT 3000 -SHRASN BR FEW020CB OVC020